Latest Weather Observations for Point Wilson

IDV60801

Issued at 7:05 am EST Friday 1 August 2014 (issued every 30 minutes, with the page automatically refreshed every 10 minutes)

About weather observations | Map of weather stations | Latest weather observations for VIC | Other Formats
Station Details ID: 087166 Name: POINT WILSON Lat: -38.10 Lon: 144.54 Height: 18.0 m
Data from the previous 72 hours. | See also: Recent months at Point Wilson
Date/Time
EST
Temp
°C
App
Temp
°C
Dew
Point
Rel
Hum
%
Delta-T
°C
Wind Press
QNH
hPa
Press
MSL
hPa
Rain
since 9 am
mm
Dir
 
Spd
km/h
Gust
km/h
Spd
kts
Gust
kts
01/07:00am - - - - - NW 46 57 25 31 - - -
01/06:30am - - - - - NW 43 52 23 28 - - -
01/06:00am - - - - - NW 41 52 22 28 - - -
01/05:30am - - - - - NW 48 63 26 34 - - -
01/05:00am - - - - - NW 56 69 30 37 - - -
01/04:30am - - - - - NW 54 65 29 35 - - -
01/04:01am - - - - - WNW 57 76 31 41 - - -
01/04:00am - - - - - WNW 59 76 32 41 - - -
01/03:36am - - - - - NW 57 76 31 41 - - -
01/03:30am - - - - - NW 54 70 29 38 - - -
01/03:25am - - - - - NW 50 70 27 38 - - -
01/03:00am - - - - - NW 41 52 22 28 - - -
01/02:50am - - - - - WNW 39 57 21 31 - - -
01/02:30am - - - - - WNW 39 52 21 28 - - -
01/02:18am - - - - - NW 43 63 23 34 - - -
01/02:00am - - - - - NW 50 65 27 35 - - -
01/01:31am - - - - - NW 50 72 27 39 - - -
01/01:30am - - - - - NW 50 61 27 33 - - -
01/01:00am - - - - - NW 46 57 25 31 - - -
01/12:30am - - - - - NW 46 56 25 30 - - -
01/12:00am - - - - - NW 44 50 24 27 - - -
 
Date/Time
EST
Temp
°C
App
Temp
°C
Dew
Point
Rel
Hum
%
Delta-T
°C
Wind Press
QNH
hPa
Press
MSL
hPa
Rain
since 9 am
mm
Dir
 
Spd
km/h
Gust
km/h
Spd
kts
Gust
kts
31/11:30pm - - - - - WNW 50 61 27 33 - - -
31/11:00pm - - - - - WNW 39 50 21 27 - - -
31/10:30pm - - - - - WNW 37 48 20 26 - - -
31/10:00pm - - - - - WNW 35 44 19 24 - - -
31/09:30pm - - - - - WNW 41 50 22 27 - - -
31/09:00pm - - - - - WNW 44 56 24 30 - - -
31/08:30pm - - - - - WNW 39 50 21 27 - - -
31/08:00pm - - - - - WNW 41 50 22 27 - - -
31/07:30pm - - - - - WNW 41 52 22 28 - - -
31/07:16pm - - - - - WNW 41 59 22 32 - - -
31/07:00pm - - - - - NW 39 52 21 28 - - -
31/06:30pm - - - - - NW 35 44 19 24 - - -
31/06:00pm - - - - - WNW 35 44 19 24 - - -
31/05:30pm - - - - - WNW 33 43 18 23 - - -
31/05:11pm - - - - - WNW 39 57 21 31 - - -
31/05:00pm - - - - - WNW 44 61 24 33 - - -
31/04:30pm - - - - - W 48 57 26 31 - - -
31/04:04pm - - - - - W 48 67 26 36 - - -
31/04:00pm - - - - - W 48 63 26 34 - - -
31/03:38pm - - - - - W 56 82 30 44 - - -
31/03:30pm - - - - - W 54 65 29 35 - - -
31/03:01pm - - - - - W 48 67 26 36 - - -
31/03:00pm - - - - - W 46 63 25 34 - - -
31/02:34pm - - - - - W 57 76 31 41 - - -
31/02:30pm - - - - - W 61 76 33 41 - - -
31/02:00pm - - - - - W 59 82 32 44 - - -
31/01:54pm - - - - - W 63 87 34 47 - - -
31/01:53pm - - - - - W 65 87 35 47 - - -
31/01:30pm - - - - - NNW 69 93 37 50 - - -
31/01:00pm - - - - - NNW 70 95 38 51 - - -
31/12:30pm - - - - - NNW 70 89 38 48 - - -
31/12:00pm - - - - - NNW 69 87 37 47 - - -
31/11:30am - - - - - NNW 69 95 37 51 - - -
31/11:00am - - - - - NNW 67 89 36 48 - - -
31/10:30am - - - - - NNW 67 85 36 46 - - -
31/10:00am - - - - - NNW 65 89 35 48 - - -
31/09:30am - - - - - NNW 57 78 31 42 - - -
31/09:26am - - - - - NNW 54 78 29 42 - - -
31/09:00am - - - - - NNW 56 70 30 38 - - -
31/08:30am - - - - - N 46 72 25 39 - - -
31/08:00am - - - - - N 48 72 26 39 - - -
31/07:30am - - - - - NNW 46 65 25 35 - - -
31/07:00am - - - - - NNW 46 67 25 36 - - -
31/06:30am - - - - - N 52 65 28 35 - - -
31/06:00am - - - - - N 44 54 24 29 - - -
31/05:30am - - - - - NNW 46 57 25 31 - - -
31/05:00am - - - - - N 48 57 26 31 - - -
31/04:30am - - - - - NNW 48 63 26 34 - - -
31/04:00am - - - - - NNW 43 57 23 31 - - -
31/03:30am - - - - - N 44 57 24 31 - - -
31/03:00am - - - - - N 43 50 23 27 - - -
31/02:30am - - - - - N 50 61 27 33 - - -
31/02:00am - - - - - N 44 59 24 32 - - -
31/01:30am - - - - - N 44 54 24 29 - - -
31/01:00am - - - - - N 46 63 25 34 - - -
31/12:52am - - - - - N 43 63 23 34 - - -
31/12:30am - - - - - N 41 50 22 27 - - -
31/12:00am - - - - - NNW 41 48 22 26 - - -
 
Date/Time
EST
Temp
°C
App
Temp
°C
Dew
Point
Rel
Hum
%
Delta-T
°C
Wind Press
QNH
hPa
Press
MSL
hPa
Rain
since 9 am
mm
Dir
 
Spd
km/h
Gust
km/h
Spd
kts
Gust
kts
30/11:30pm - - - - - NNW 41 50 22 27 - - -
30/11:00pm - - - - - NNW 43 52 23 28 - - -
30/10:30pm - - - - - NNW 46 57 25 31 - - -
30/10:26pm - - - - - NNW 43 56 23 30 - - -
30/10:00pm - - - - - N 32 44 17 24 - - -
30/09:30pm - - - - - N 39 59 21 32 - - -
30/09:26pm - - - - - N 41 59 22 32 - - -
30/09:00pm - - - - - NNW 33 43 18 23 - - -
30/08:30pm - - - - - NNW 35 44 19 24 - - -
30/08:00pm - - - - - NNW 33 41 18 22 - - -
30/07:30pm - - - - - NNW 32 41 17 22 - - -
30/07:00pm - - - - - NNW 26 32 14 17 - - -
30/06:30pm - - - - - NNW 26 32 14 17 - - -
30/06:00pm - - - - - NNW 30 39 16 21 - - -
30/05:30pm - - - - - NNW 32 43 17 23 - - -
30/05:00pm - - - - - NNW 37 46 20 25 - - -
30/04:30pm - - - - - NNW 37 52 20 28 - - -
30/04:00pm - - - - - NNW 41 52 22 28 - - -
30/03:30pm - - - - - NNW 37 44 20 24 - - -
30/03:03pm - - - - - NW 39 59 21 32 - - -
30/03:00pm - - - - - NW 39 54 21 29 - - -
30/02:30pm - - - - - NW 44 54 24 29 - - -
30/02:11pm - - - - - NW 28 57 15 31 - - -
30/02:00pm - - - - - NW 22 26 12 14 - - -
30/01:30pm - - - - - WNW 33 43 18 23 - - -
30/01:15pm - - - - - WNW 37 48 20 26 - - -
30/01:00pm - - - - - NNW 44 56 24 30 - - -
30/12:30pm - - - - - NNW 41 50 22 27 - - -
30/12:00pm - - - - - NW 33 43 18 23 - - -
30/11:30am - - - - - NW 46 63 25 34 - - -
30/11:25am - - - - - NW 43 63 23 34 - - -
30/11:00am - - - - - NW 37 44 20 24 - - -
30/10:30am - - - - - NNW 33 43 18 23 - - -
30/10:00am - - - - - NNW 35 44 19 24 - - -
30/09:30am - - - - - NNW 32 43 17 23 - - -
30/09:00am - - - - - NNW 32 39 17 21 - - -
30/08:30am - - - - - N 30 35 16 19 - - -
30/08:00am - - - - - N 30 35 16 19 - - -
30/07:30am - - - - - NNW 30 35 16 19 - - -
30/07:00am - - - - - NNW 28 32 15 17 - - -
30/06:30am - - - - - NNW 28 32 15 17 - - -
30/06:00am - - - - - NW 32 41 17 22 - - -
30/05:30am - - - - - NW 30 33 16 18 - - -
30/05:00am - - - - - NW 26 30 14 16 - - -
30/04:30am - - - - - NW 32 39 17 21 - - -
30/04:00am - - - - - WNW 37 43 20 23 - - -
30/03:30am - - - - - WNW 39 50 21 27 - - -
30/03:00am - - - - - WNW 28 35 15 19 - - -
30/02:30am - - - - - WNW 43 52 23 28 - - -
30/02:20am - - - - - WNW 43 48 23 26 - - -
30/02:00am - - - - - NNW 26 39 14 21 - - -
30/01:30am - - - - - NW 24 32 13 17 - - -
30/01:00am - - - - - WNW 30 39 16 21 - - -
30/12:30am - - - - - NW 37 48 20 26 - - -
30/12:00am - - - - - NW 28 33 15 18 - - -
 
Date/Time
EST
Temp
°C
App
Temp
°C
Dew
Point
Rel
Hum
%
Delta-T
°C
Wind Press
QNH
hPa
Press
MSL
hPa
Rain
since 9 am
mm
Dir
 
Spd
km/h
Gust
km/h
Spd
kts
Gust
kts
29/11:30pm - - - - - W 33 44 18 24 - - -
29/11:10pm - - - - - WNW 43 56 23 30 - - -
29/11:00pm - - - - - NW 20 26 11 14 - - -
29/10:30pm - - - - - W 15 19 8 10 - - -
29/10:00pm - - - - - W 26 35 14 19 - - -
29/09:40pm - - - - - WNW 30 50 16 27 - - -
29/09:30pm - - - - - NW 33 41 18 22 - - -
29/09:00pm - - - - - NNW 33 43 18 23 - - -
29/08:30pm - - - - - NNW 32 39 17 21 - - -
29/08:00pm - - - - - NW 37 50 20 27 - - -
29/07:30pm - - - - - NW 30 43 16 23 - - -
29/07:00pm - - - - - NNW 32 41 17 22 - - -
29/06:30pm - - - - - NW 39 50 21 27 - - -
29/06:00pm - - - - - NNW 35 46 19 25 - - -
29/05:36pm - - - - - NNW 32 50 17 27 - - -
29/05:30pm - - - - - NNW 28 39 15 21 - - -
29/05:00pm - - - - - NNW 32 48 17 26 - - -
29/04:30pm - - - - - NW 37 57 20 31 - - -
29/04:25pm - - - - - WNW 39 57 21 31 - - -
29/04:11pm - - - - - WNW 41 56 22 30 - - -
29/04:00pm - - - - - NNW 41 63 22 34 - - -
29/03:59pm - - - - - NNW 41 63 22 34 - - -
29/03:30pm - - - - - NNW 39 50 21 27 - - -
29/03:00pm - - - - - NNW 43 50 23 27 - - -
29/02:33pm - - - - - NNW 44 63 24 34 - - -
29/02:30pm - - - - - NNW 44 59 24 32 - - -
29/02:00pm - - - - - NNW 39 48 21 26 - - -
29/01:30pm - - - - - NNW 46 69 25 37 - - -
29/01:05pm - - - - - N 37 56 20 30 - - -
29/01:00pm - - - - - N 35 43 19 23 - - -
29/12:34pm - - - - - NNW 37 59 20 32 - - -
29/12:30pm - - - - - NNW 37 48 20 26 - - -
29/12:14pm - - - - - NNW 37 56 20 30 - - -
29/12:00pm - - - - - N 37 46 20 25 - - -
29/11:30am - - - - - N 35 46 19 25 - - -
29/11:03am - - - - - NNW 39 57 21 31 - - -
29/11:00am - - - - - NNW 37 54 20 29 - - -
29/10:30am - - - - - N 33 39 18 21 - - -
29/10:00am - - - - - N 30 39 16 21 - - -
29/09:30am - - - - - NNW 37 46 20 25 - - -
29/09:00am - - - - - NNW 37 44 20 24 - - -
29/08:30am - - - - - NNW 41 50 22 27 - - -
29/08:00am - - - - - NNW 44 54 24 29 - - -
29/07:30am - - - - - N 30 37 16 20 - - -

Other Formats:

Comma delimited format used in spreadsheet applications
http://www.bom.gov.au/fwo/IDV60801/IDV60801.94847.axf

JavaScript Object Notation format (JSON) in row-major order
http://www.bom.gov.au/fwo/IDV60801/IDV60801.94847.json